sensor_id;sensor_type;location;lat;lon;timestamp;pressure;altitude;pressure_sealevel;temperature;humidity
22688;BME280;11511;51.514;7.080;2022-10-16T00:01:26;100543.28;;;11.67;100.00
22688;BME280;11511;51.514;7.080;2022-10-16T00:03:53;100531.81;;;11.68;100.00
22688;BME280;11511;51.514;7.080;2022-10-16T00:06:19;100540.13;;;11.59;100.00
22688;BME280;11511;51.514;7.080;2022-10-16T00:08:47;100540.09;;;11.38;100.00
22688;BME280;11511;51.514;7.080;2022-10-16T00:11:16;100547.03;;;11.41;100.00
22688;BME280;11511;51.514;7.080;2022-10-16T00:13:44;100548.38;;;11.07;100.00
22688;BME280;11511;51.514;7.080;2022-10-16T00:16:11;100545.78;;;11.28;100.00
22688;BME280;11511;51.514;7.080;2022-10-16T00:18:38;100553.03;;;11.44;100.00
22688;BME280;11511;51.514;7.080;2022-10-16T00:21:13;100548.50;;;11.48;100.00
22688;BME280;11511;51.514;7.080;2022-10-16T00:24:05;100548.69;;;11.43;100.00
22688;BME280;11511;51.514;7.080;2022-10-16T00:26:32;100546.16;;;11.40;100.00
22688;BME280;11511;51.514;7.080;2022-10-16T00:28:58;100555.97;;;11.37;100.00
22688;BME280;11511;51.514;7.080;2022-10-16T00:31:24;100552.84;;;11.27;100.00
22688;BME280;11511;51.514;7.080;2022-10-16T00:33:50;100548.31;;;11.31;100.00
22688;BME280;11511;51.514;7.080;2022-10-16T00:36:19;100554.13;;;11.39;100.00
22688;BME280;11511;51.514;7.080;2022-10-16T00:38:45;100555.84;;;11.40;100.00
22688;BME280;11511;51.514;7.080;2022-10-16T00:41:15;100563.38;;;11.49;100.00
22688;BME280;11511;51.514;7.080;2022-10-16T00:43:42;100556.47;;;11.46;100.00
22688;BME280;11511;51.514;7.080;2022-10-16T00:49:05;100561.78;;;11.23;100.00
22688;BME280;11511;51.514;7.080;2022-10-16T00:51:37;100561.34;;;11.56;100.00
22688;BME280;11511;51.514;7.080;2022-10-16T00:54:08;100563.22;;;11.74;100.00
22688;BME280;11511;51.514;7.080;2022-10-16T00:56:34;100566.78;;;11.73;100.00
22688;BME280;11511;51.514;7.080;2022-10-16T00:59:03;100568.44;;;11.75;100.00
22688;BME280;11511;51.514;7.080;2022-10-16T01:01:30;100554.28;;;11.78;100.00
22688;BME280;11511;51.514;7.080;2022-10-16T01:03:56;100552.19;;;11.64;100.00
22688;BME280;11511;51.514;7.080;2022-10-16T01:06:24;100555.56;;;11.68;100.00
22688;BME280;11511;51.514;7.080;2022-10-16T01:09:16;100554.34;;;11.54;100.00
22688;BME280;11511;51.514;7.080;2022-10-16T01:12:12;100556.44;;;11.68;100.00
22688;BME280;11511;51.514;7.080;2022-10-16T01:14:46;100559.25;;;11.64;100.00
22688;BME280;11511;51.514;7.080;2022-10-16T01:17:23;100561.59;;;11.71;100.00
22688;BME280;11511;51.514;7.080;2022-10-16T01:25:44;100564.97;;;11.53;100.00
22688;BME280;11511;51.514;7.080;2022-10-16T01:28:17;100570.91;;;11.58;100.00
22688;BME280;11511;51.514;7.080;2022-10-16T01:30:46;100562.53;;;11.48;100.00
22688;BME280;11511;51.514;7.080;2022-10-16T01:33:21;100559.69;;;11.53;100.00
22688;BME280;11511;51.514;7.080;2022-10-16T01:35:55;100556.44;;;11.68;100.00
22688;BME280;11511;51.514;7.080;2022-10-16T01:38:36;100552.97;;;11.46;100.00
22688;BME280;11511;51.514;7.080;2022-10-16T01:41:27;100546.53;;;11.31;100.00
22688;BME280;11511;51.514;7.080;2022-10-16T01:44:28;100551.56;;;11.37;100.00
22688;BME280;11511;51.514;7.080;2022-10-16T01:46:56;100552.53;;;11.35;100.00
22688;BME280;11511;51.514;7.080;2022-10-16T01:49:25;100557.81;;;11.35;100.00
22688;BME280;11511;51.514;7.080;2022-10-16T01:51:54;100554.88;;;11.21;100.00
22688;BME280;11511;51.514;7.080;2022-10-16T01:54:23;100557.00;;;11.33;100.00
22688;BME280;11511;51.514;7.080;2022-10-16T01:56:52;100561.19;;;11.38;100.00
22688;BME280;11511;51.514;7.080;2022-10-16T01:59:21;100555.81;;;11.62;100.00
22688;BME280;11511;51.514;7.080;2022-10-16T02:01:51;100553.97;;;11.64;100.00
22688;BME280;11511;51.514;7.080;2022-10-16T02:04:47;100550.97;;;11.51;100.00
22688;BME280;11511;51.514;7.080;2022-10-16T02:07:11;100552.97;;;11.46;100.00
22688;BME280;11511;51.514;7.080;2022-10-16T02:09:37;100554.53;;;11.50;100.00
22688;BME280;11511;51.514;7.080;2022-10-16T02:12:10;100558.63;;;11.57;100.00
22688;BME280;11511;51.514;7.080;2022-10-16T02:14:40;100569.66;;;11.46;100.00
22688;BME280;11511;51.514;7.080;2022-10-16T02:17:14;100570.53;;;11.67;100.00
22688;BME280;11511;51.514;7.080;2022-10-16T02:19:41;100566.97;;;11.68;100.00
22688;BME280;11511;51.514;7.080;2022-10-16T02:22:10;100573.78;;;11.74;100.00
22688;BME280;11511;51.514;7.080;2022-10-16T02:24:48;100564.41;;;11.67;100.00
22688;BME280;11511;51.514;7.080;2022-10-16T02:27:50;100558.81;;;11.74;100.00
22688;BME280;11511;51.514;7.080;2022-10-16T02:30:40;100567.78;;;11.70;100.00
22688;BME280;11511;51.514;7.080;2022-10-16T02:33:10;100559.75;;;11.51;100.00
22688;BME280;11511;51.514;7.080;2022-10-16T02:35:39;100564.97;;;11.53;100.00
22688;BME280;11511;51.514;7.080;2022-10-16T02:38:08;100576.44;;;11.52;100.00
22688;BME280;11511;51.514;7.080;2022-10-16T02:40:35;100574.00;;;11.47;100.00
22688;BME280;11511;51.514;7.080;2022-10-16T02:43:03;100571.63;;;11.41;100.00
22688;BME280;11511;51.514;7.080;2022-10-16T02:45:29;100566.56;;;11.57;100.00
22688;BME280;11511;51.514;7.080;2022-10-16T02:47:55;100568.69;;;11.69;100.00
22688;BME280;11511;51.514;7.080;2022-10-16T02:50:21;100573.47;;;11.81;100.00
22688;BME280;11511;51.514;7.080;2022-10-16T02:52:47;100577.03;;;11.80;100.00
22688;BME280;11511;51.514;7.080;2022-10-16T02:55:13;100565.91;;;11.94;100.00
22688;BME280;11511;51.514;7.080;2022-10-16T02:57:39;100572.44;;;11.85;100.00
22688;BME280;11511;51.514;7.080;2022-10-16T03:00:07;100567.88;;;11.89;100.00
22688;BME280;11511;51.514;7.080;2022-10-16T03:02:34;100562.25;;;11.76;100.00
22688;BME280;11511;51.514;7.080;2022-10-16T03:04:59;100568.81;;;11.88;100.00
22688;BME280;11511;51.514;7.080;2022-10-16T03:07:25;100566.28;;;11.85;100.00
22688;BME280;11511;51.514;7.080;2022-10-16T03:09:51;100565.72;;;11.99;100.00
22688;BME280;11511;51.514;7.080;2022-10-16T03:12:16;100567.94;;;11.88;100.00
22688;BME280;11511;51.514;7.080;2022-10-16T03:14:42;100581.63;;;11.97;100.00
22688;BME280;11511;51.514;7.080;2022-10-16T03:17:08;100576.22;;;12.00;100.00
22688;BME280;11511;51.514;7.080;2022-10-16T03:19:34;100581.06;;;12.09;100.00
22688;BME280;11511;51.514;7.080;2022-10-16T03:22:01;100576.84;;;12.05;100.00
22688;BME280;11511;51.514;7.080;2022-10-16T03:24:27;100572.03;;;12.15;100.00
22688;BME280;11511;51.514;7.080;2022-10-16T03:26:53;100563.97;;;12.18;100.00
22688;BME280;11511;51.514;7.080;2022-10-16T03:29:19;100571.31;;;12.11;100.00
22688;BME280;11511;51.514;7.080;2022-10-16T03:31:44;100569.19;;;12.19;100.00
22688;BME280;11511;51.514;7.080;2022-10-16T03:34:10;100570.31;;;12.14;100.00
22688;BME280;11511;51.514;7.080;2022-10-16T03:36:36;100565.31;;;12.28;100.00
22688;BME280;11511;51.514;7.080;2022-10-16T03:39:02;100565.03;;;12.14;100.00
22688;BME280;11511;51.514;7.080;2022-10-16T03:41:28;100568.41;;;12.17;100.00
22688;BME280;11511;51.514;7.080;2022-10-16T03:43:54;100564.84;;;12.18;100.00
22688;BME280;11511;51.514;7.080;2022-10-16T03:46:19;100558.50;;;12.23;100.00
22688;BME280;11511;51.514;7.080;2022-10-16T03:48:45;100564.91;;;12.17;100.00
22688;BME280;11511;51.514;7.080;2022-10-16T03:51:11;100577.56;;;12.09;100.00
22688;BME280;11511;51.514;7.080;2022-10-16T03:53:37;100579.16;;;12.13;100.00
22688;BME280;11511;51.514;7.080;2022-10-16T03:56:02;100567.34;;;12.22;100.00
22688;BME280;11511;51.514;7.080;2022-10-16T03:58:28;100566.75;;;12.15;100.00
22688;BME280;11511;51.514;7.080;2022-10-16T04:00:54;100578.78;;;12.02;100.00
22688;BME280;11511;51.514;7.080;2022-10-16T04:03:20;100577.88;;;12.03;100.00
22688;BME280;11511;51.514;7.080;2022-10-16T04:05:46;100583.53;;;12.14;100.00
22688;BME280;11511;51.514;7.080;2022-10-16T04:08:12;100588.50;;;12.01;100.00
22688;BME280;11511;51.514;7.080;2022-10-16T04:10:38;100593.41;;;12.09;100.00
22688;BME280;11511;51.514;7.080;2022-10-16T04:13:03;100590.59;;;11.93;100.00
22688;BME280;11511;51.514;7.080;2022-10-16T04:15:29;100588.34;;;12.04;100.00
22688;BME280;11511;51.514;7.080;2022-10-16T04:17:55;100592.38;;;12.13;100.00
22688;BME280;11511;51.514;7.080;2022-10-16T04:20:21;100603.19;;;12.07;100.00
22688;BME280;11511;51.514;7.080;2022-10-16T04:22:46;100604.03;;;12.07;100.00
22688;BME280;11511;51.514;7.080;2022-10-16T04:25:12;100604.09;;;12.06;100.00
22688;BME280;11511;51.514;7.080;2022-10-16T04:27:38;100603.19;;;11.86;100.00
22688;BME280;11511;51.514;7.080;2022-10-16T04:30:04;100605.94;;;11.83;100.00
22688;BME280;11511;51.514;7.080;2022-10-16T04:32:30;100613.34;;;11.96;100.00
22688;BME280;11511;51.514;7.080;2022-10-16T04:34:56;100617.72;;;11.97;100.00
22688;BME280;11511;51.514;7.080;2022-10-16T04:37:26;100622.75;;;11.81;100.00
22688;BME280;11511;51.514;7.080;2022-10-16T04:39:52;100628.22;;;11.76;100.00
22688;BME280;11511;51.514;7.080;2022-10-16T04:42:19;100621.78;;;11.62;100.00
22688;BME280;11511;51.514;7.080;2022-10-16T04:44:44;100629.00;;;11.57;100.00
22688;BME280;11511;51.514;7.080;2022-10-16T04:47:10;100634.28;;;11.57;100.00
22688;BME280;11511;51.514;7.080;2022-10-16T04:49:36;100636.88;;;11.58;100.00
22688;BME280;11511;51.514;7.080;2022-10-16T04:52:02;100631.75;;;11.53;100.00
22688;BME280;11511;51.514;7.080;2022-10-16T04:54:27;100636.91;;;11.57;100.00
22688;BME280;11511;51.514;7.080;2022-10-16T04:56:53;100634.66;;;11.69;100.00
22688;BME280;11511;51.514;7.080;2022-10-16T04:59:20;100640.69;;;11.73;100.00
22688;BME280;11511;51.514;7.080;2022-10-16T05:01:47;100646.06;;;11.70;100.00
22688;BME280;11511;51.514;7.080;2022-10-16T05:04:12;100645.47;;;11.63;100.00
22688;BME280;11511;51.514;7.080;2022-10-16T05:06:40;100639.81;;;11.72;100.00
22688;BME280;11511;51.514;7.080;2022-10-16T05:09:07;100652.75;;;11.78;100.00
22688;BME280;11511;51.514;7.080;2022-10-16T05:11:32;100658.09;;;11.99;100.00
22688;BME280;11511;51.514;7.080;2022-10-16T05:13:58;100653.81;;;11.96;100.00
22688;BME280;11511;51.514;7.080;2022-10-16T05:16:24;100651.69;;;12.04;100.00
22688;BME280;11511;51.514;7.080;2022-10-16T05:18:51;100657.56;;;11.91;100.00
22688;BME280;11511;51.514;7.080;2022-10-16T05:21:18;100666.53;;;11.86;100.00
22688;BME280;11511;51.514;7.080;2022-10-16T05:23:44;100665.03;;;12.01;100.00
22688;BME280;11511;51.514;7.080;2022-10-16T05:26:10;100661.53;;;12.01;100.00
22688;BME280;11511;51.514;7.080;2022-10-16T05:28:35;100668.53;;;12.02;100.00
22688;BME280;11511;51.514;7.080;2022-10-16T05:31:08;100672.47;;;11.92;100.00
22688;BME280;11511;51.514;7.080;2022-10-16T05:33:35;100672.41;;;11.93;100.00
22688;BME280;11511;51.514;7.080;2022-10-16T05:36:04;100676.97;;;11.90;100.00
22688;BME280;11511;51.514;7.080;2022-10-16T05:38:31;100668.72;;;11.97;100.00
22688;BME280;11511;51.514;7.080;2022-10-16T05:40:57;100673.94;;;11.99;100.00
22688;BME280;11511;51.514;7.080;2022-10-16T05:43:23;100675.13;;;11.92;100.00
22688;BME280;11511;51.514;7.080;2022-10-16T05:46:00;100675.72;;;11.98;100.00
22688;BME280;11511;51.514;7.080;2022-10-16T05:48:27;100681.69;;;12.03;100.00
22688;BME280;11511;51.514;7.080;2022-10-16T05:51:02;100678.84;;;11.86;100.00
22688;BME280;11511;51.514;7.080;2022-10-16T05:53:30;100691.88;;;11.91;100.00
22688;BME280;11511;51.514;7.080;2022-10-16T05:55:56;100691.06;;;11.89;100.00
22688;BME280;11511;51.514;7.080;2022-10-16T05:58:23;100692.16;;;11.83;100.00
22688;BME280;11511;51.514;7.080;2022-10-16T06:01:02;100698.50;;;11.79;100.00
22688;BME280;11511;51.514;7.080;2022-10-16T06:03:29;100707.66;;;11.92;100.00
22688;BME280;11511;51.514;7.080;2022-10-16T06:05:54;100713.22;;;11.84;100.00
22688;BME280;11511;51.514;7.080;2022-10-16T06:08:21;100715.41;;;11.73;100.00
22688;BME280;11511;51.514;7.080;2022-10-16T06:10:47;100723.97;;;11.80;100.00
22688;BME280;11511;51.514;7.080;2022-10-16T06:13:13;100717.47;;;11.89;100.00
22688;BME280;11511;51.514;7.080;2022-10-16T06:15:40;100724.94;;;11.77;100.00
22688;BME280;11511;51.514;7.080;2022-10-16T06:18:09;100718.38;;;11.88;100.00
22688;BME280;11511;51.514;7.080;2022-10-16T06:20:36;100734.19;;;11.66;100.00
22688;BME280;11511;51.514;7.080;2022-10-16T06:23:03;100733.56;;;11.59;100.00
22688;BME280;11511;51.514;7.080;2022-10-16T06:25:32;100738.88;;;11.58;100.00
22688;BME280;11511;51.514;7.080;2022-10-16T06:27:58;100745.41;;;11.71;100.00
22688;BME280;11511;51.514;7.080;2022-10-16T06:30:24;100751.22;;;11.80;100.00
22688;BME280;11511;51.514;7.080;2022-10-16T06:32:49;100739.03;;;12.00;100.00
22688;BME280;11511;51.514;7.080;2022-10-16T06:35:15;100738.56;;;11.89;100.00
22688;BME280;11511;51.514;7.080;2022-10-16T06:37:41;100742.53;;;12.00;100.00
22688;BME280;11511;51.514;7.080;2022-10-16T06:40:07;100738.09;;;12.01;100.00
22688;BME280;11511;51.514;7.080;2022-10-16T06:42:33;100743.84;;;12.10;100.00
22688;BME280;11511;51.514;7.080;2022-10-16T06:44:58;100748.88;;;12.16;100.00
22688;BME280;11511;51.514;7.080;2022-10-16T06:47:24;100754.53;;;12.29;100.00
22688;BME280;11511;51.514;7.080;2022-10-16T06:49:49;100769.25;;;12.35;100.00
22688;BME280;11511;51.514;7.080;2022-10-16T06:52:15;100772.19;;;12.49;100.00
22688;BME280;11511;51.514;7.080;2022-10-16T06:54:42;100772.66;;;12.59;100.00
22688;BME280;11511;51.514;7.080;2022-10-16T06:57:07;100779.56;;;12.41;100.00
22688;BME280;11511;51.514;7.080;2022-10-16T06:59:33;100787.63;;;12.38;100.00
22688;BME280;11511;51.514;7.080;2022-10-16T07:01:59;100794.28;;;12.26;100.00
22688;BME280;11511;51.514;7.080;2022-10-16T07:04:24;100801.63;;;12.40;100.00
22688;BME280;11511;51.514;7.080;2022-10-16T07:06:50;100799.16;;;12.35;100.00
22688;BME280;11511;51.514;7.080;2022-10-16T07:09:17;100807.69;;;12.42;100.00
22688;BME280;11511;51.514;7.080;2022-10-16T07:11:42;100818.16;;;12.45;100.00
22688;BME280;11511;51.514;7.080;2022-10-16T07:14:19;100818.63;;;12.33;100.00
22688;BME280;11511;51.514;7.080;2022-10-16T07:16:45;100822.81;;;12.38;100.00
22688;BME280;11511;51.514;7.080;2022-10-16T07:19:11;100828.50;;;12.29;100.00
22688;BME280;11511;51.514;7.080;2022-10-16T07:21:40;100833.84;;;12.28;100.00
22688;BME280;11511;51.514;7.080;2022-10-16T07:24:11;100830.38;;;12.26;100.00
22688;BME280;11511;51.514;7.080;2022-10-16T07:26:38;100833.09;;;12.24;100.00
22688;BME280;11511;51.514;7.080;2022-10-16T07:29:16;100837.06;;;12.34;100.00
22688;BME280;11511;51.514;7.080;2022-10-16T07:31:43;100840.31;;;12.41;100.00
22688;BME280;11511;51.514;7.080;2022-10-16T07:34:10;100842.16;;;12.39;100.00
22688;BME280;11511;51.514;7.080;2022-10-16T07:36:36;100842.03;;;12.64;100.00
22688;BME280;11511;51.514;7.080;2022-10-16T07:39:03;100850.06;;;13.03;100.00
22688;BME280;11511;51.514;7.080;2022-10-16T07:41:28;100844.19;;;13.16;100.00
22688;BME280;11511;51.514;7.080;2022-10-16T07:43:55;100854.44;;;13.04;100.00
22688;BME280;11511;51.514;7.080;2022-10-16T07:46:25;100851.16;;;13.19;100.00
22688;BME280;11511;51.514;7.080;2022-10-16T07:48:51;100857.44;;;13.37;100.00
22688;BME280;11511;51.514;7.080;2022-10-16T07:51:19;100867.53;;;13.47;100.00
22688;BME280;11511;51.514;7.080;2022-10-16T07:53:45;100861.28;;;13.69;100.00
22688;BME280;11511;51.514;7.080;2022-10-16T07:56:11;100869.38;;;13.84;100.00
22688;BME280;11511;51.514;7.080;2022-10-16T07:58:37;100871.97;;;13.86;100.00
22688;BME280;11511;51.514;7.080;2022-10-16T08:01:05;100884.41;;;14.03;100.00
22688;BME280;11511;51.514;7.080;2022-10-16T08:03:32;100877.78;;;14.13;100.00
22688;BME280;11511;51.514;7.080;2022-10-16T08:05:58;100887.38;;;14.15;100.00
22688;BME280;11511;51.514;7.080;2022-10-16T08:08:25;100893.56;;;14.33;100.00
22688;BME280;11511;51.514;7.080;2022-10-16T08:10:51;100891.47;;;14.41;100.00
22688;BME280;11511;51.514;7.080;2022-10-16T08:13:17;100894.44;;;14.52;100.00
22688;BME280;11511;51.514;7.080;2022-10-16T08:15:43;100900.13;;;14.45;100.00
22688;BME280;11511;51.514;7.080;2022-10-16T08:18:11;100907.59;;;14.73;100.00
22688;BME280;11511;51.514;7.080;2022-10-16T08:20:37;100913.22;;;14.84;100.00
22688;BME280;11511;51.514;7.080;2022-10-16T08:23:04;100915.72;;;14.87;100.00
22688;BME280;11511;51.514;7.080;2022-10-16T08:25:30;100921.66;;;14.92;100.00
22688;BME280;11511;51.514;7.080;2022-10-16T08:27:55;100925.31;;;14.89;100.00
22688;BME280;11511;51.514;7.080;2022-10-16T08:30:22;100933.28;;;15.07;100.00
22688;BME280;11511;51.514;7.080;2022-10-16T08:32:48;100929.88;;;15.22;100.00
22688;BME280;11511;51.514;7.080;2022-10-16T08:35:14;100916.91;;;15.33;100.00
22688;BME280;11511;51.514;7.080;2022-10-16T08:37:41;100921.00;;;15.23;100.00
22688;BME280;11511;51.514;7.080;2022-10-16T08:40:16;100937.47;;;15.30;100.00
22688;BME280;11511;51.514;7.080;2022-10-16T08:50:54;100958.06;;;15.76;100.00
22688;BME280;11511;51.514;7.080;2022-10-16T08:53:49;100965.97;;;15.78;100.00
22688;BME280;11511;51.514;7.080;2022-10-16T08:56:17;100958.38;;;15.70;100.00
22688;BME280;11511;51.514;7.080;2022-10-16T08:58:44;100971.97;;;15.64;100.00
22688;BME280;11511;51.514;7.080;2022-10-16T09:01:13;100973.31;;;16.06;100.00
22688;BME280;11511;51.514;7.080;2022-10-16T09:12:08;100977.00;;;16.36;99.88
22688;BME280;11511;51.514;7.080;2022-10-16T09:15:01;100986.19;;;16.62;100.00
22688;BME280;11511;51.514;7.080;2022-10-16T09:17:49;100979.44;;;16.72;98.54
22688;BME280;11511;51.514;7.080;2022-10-16T09:25:39;101009.31;;;16.93;94.76
22688;BME280;11511;51.514;7.080;2022-10-16T09:28:08;101001.34;;;17.53;90.33
22688;BME280;11511;51.514;7.080;2022-10-16T09:30:34;101002.88;;;17.57;91.08
22688;BME280;11511;51.514;7.080;2022-10-16T09:33:00;100995.94;;;17.54;89.71
22688;BME280;11511;51.514;7.080;2022-10-16T09:35:33;100959.44;;;19.76;76.46
22688;BME280;11511;51.514;7.080;2022-10-16T09:38:00;100953.63;;;22.77;59.45
22688;BME280;11511;51.514;7.080;2022-10-16T09:40:30;100966.69;;;26.41;49.56
22688;BME280;11511;51.514;7.080;2022-10-16T09:43:25;100977.25;;;25.78;48.87
22688;BME280;11511;51.514;7.080;2022-10-16T09:46:08;100987.00;;;27.96;43.33
22688;BME280;11511;51.514;7.080;2022-10-16T09:48:44;100983.41;;;28.40;40.49
22688;BME280;11511;51.514;7.080;2022-10-16T09:51:26;101000.56;;;26.62;44.24
22688;BME280;11511;51.514;7.080;2022-10-16T09:53:56;101016.19;;;26.69;43.09
22688;BME280;11511;51.514;7.080;2022-10-16T09:56:31;101030.28;;;26.62;43.93
22688;BME280;11511;51.514;7.080;2022-10-16T09:59:00;101021.59;;;24.87;46.21
22688;BME280;11511;51.514;7.080;2022-10-16T10:01:36;101021.16;;;26.73;43.00
22688;BME280;11511;51.514;7.080;2022-10-16T10:04:04;101021.09;;;27.28;41.62
22688;BME280;11511;51.514;7.080;2022-10-16T10:06:33;101020.78;;;23.84;47.30
22688;BME280;11511;51.514;7.080;2022-10-16T10:09:19;101021.91;;;21.83;55.19
22688;BME280;11511;51.514;7.080;2022-10-16T10:11:59;101019.09;;;28.69;39.85
22688;BME280;11511;51.514;7.080;2022-10-16T10:19:38;101028.78;;;26.50;41.04
22688;BME280;11511;51.514;7.080;2022-10-16T10:31:03;101031.72;;;29.61;37.39
22688;BME280;11511;51.514;7.080;2022-10-16T10:36:22;101022.47;;;28.63;37.66
22688;BME280;11511;51.514;7.080;2022-10-16T10:39:56;101031.09;;;30.63;34.57
22688;BME280;11511;51.514;7.080;2022-10-16T10:44:41;101030.47;;;25.18;44.23
22688;BME280;11511;51.514;7.080;2022-10-16T10:47:35;101029.66;;;27.06;40.68
22688;BME280;11511;51.514;7.080;2022-10-16T10:55:40;101038.31;;;22.03;52.95
22688;BME280;11511;51.514;7.080;2022-10-16T10:58:42;101048.44;;;20.29;58.02
22688;BME280;11511;51.514;7.080;2022-10-16T11:01:14;101039.41;;;19.67;63.67
22688;BME280;11511;51.514;7.080;2022-10-16T11:06:48;101040.97;;;24.41;47.39
22688;BME280;11511;51.514;7.080;2022-10-16T11:09:23;101041.66;;;23.27;49.06
22688;BME280;11511;51.514;7.080;2022-10-16T11:12:00;101035.59;;;23.57;47.71
22688;BME280;11511;51.514;7.080;2022-10-16T11:14:35;101039.31;;;21.78;51.60
22688;BME280;11511;51.514;7.080;2022-10-16T11:17:11;101041.94;;;24.60;47.24
22688;BME280;11511;51.514;7.080;2022-10-16T11:19:56;101038.41;;;25.10;44.23
22688;BME280;11511;51.514;7.080;2022-10-16T11:22:34;101038.03;;;24.44;45.91
22688;BME280;11511;51.514;7.080;2022-10-16T11:25:20;101040.16;;;23.99;47.72
22688;BME280;11511;51.514;7.080;2022-10-16T11:28:32;101036.19;;;25.82;44.42
22688;BME280;11511;51.514;7.080;2022-10-16T11:30:50;101035.94;;;27.24;39.89
22688;BME280;11511;51.514;7.080;2022-10-16T11:33:30;101042.63;;;22.94;48.18
22688;BME280;11511;51.514;7.080;2022-10-16T11:36:23;101041.28;;;25.56;43.14
22688;BME280;11511;51.514;7.080;2022-10-16T11:41:41;101044.66;;;25.20;43.15
22688;BME280;11511;51.514;7.080;2022-10-16T11:47:30;101052.91;;;21.16;54.47
22688;BME280;11511;51.514;7.080;2022-10-16T11:50:25;101049.09;;;22.81;50.60
22688;BME280;11511;51.514;7.080;2022-10-16T11:53:09;101046.63;;;22.11;52.05
22688;BME280;11511;51.514;7.080;2022-10-16T11:55:41;101055.66;;;20.41;56.22
22688;BME280;11511;51.514;7.080;2022-10-16T11:58:15;101053.09;;;22.19;53.33
22688;BME280;11511;51.514;7.080;2022-10-16T12:03:27;101053.00;;;22.54;50.98
22688;BME280;11511;51.514;7.080;2022-10-16T12:08:44;101063.97;;;23.82;49.46
22688;BME280;11511;51.514;7.080;2022-10-16T12:16:33;101069.63;;;26.28;42.31
22688;BME280;11511;51.514;7.080;2022-10-16T12:19:16;101072.88;;;25.06;43.83
22688;BME280;11511;51.514;7.080;2022-10-16T12:21:43;101073.34;;;26.17;41.86
22688;BME280;11511;51.514;7.080;2022-10-16T12:26:54;101065.78;;;27.32;40.36
22688;BME280;11511;51.514;7.080;2022-10-16T12:29:34;101053.31;;;27.92;39.88
22688;BME280;11511;51.514;7.080;2022-10-16T12:32:01;101065.81;;;23.50;47.43
22688;BME280;11511;51.514;7.080;2022-10-16T12:34:31;101055.47;;;25.29;44.78
22688;BME280;11511;51.514;7.080;2022-10-16T12:37:13;101063.69;;;26.05;42.35
22688;BME280;11511;51.514;7.080;2022-10-16T12:39:40;101063.00;;;25.36;43.28
22688;BME280;11511;51.514;7.080;2022-10-16T12:44:51;101056.03;;;25.23;43.88
22688;BME280;11511;51.514;7.080;2022-10-16T12:47:36;101070.94;;;25.47;44.26
22688;BME280;11511;51.514;7.080;2022-10-16T12:50:03;101069.38;;;26.21;42.59
22688;BME280;11511;51.514;7.080;2022-10-16T12:52:37;101069.44;;;25.63;42.01
22688;BME280;11511;51.514;7.080;2022-10-16T12:55:04;101076.31;;;26.43;41.48
22688;BME280;11511;51.514;7.080;2022-10-16T12:57:34;101084.91;;;26.56;40.31
22688;BME280;11511;51.514;7.080;2022-10-16T13:03:20;101068.59;;;24.33;46.21
22688;BME280;11511;51.514;7.080;2022-10-16T13:09:12;101068.03;;;25.00;44.03
22688;BME280;11511;51.514;7.080;2022-10-16T13:20:06;101078.13;;;23.63;46.73
22688;BME280;11511;51.514;7.080;2022-10-16T13:22:59;101083.81;;;24.44;45.44
22688;BME280;11511;51.514;7.080;2022-10-16T13:28:10;101077.81;;;25.01;44.68
22688;BME280;11511;51.514;7.080;2022-10-16T13:30:40;101074.09;;;25.42;42.88
22688;BME280;11511;51.514;7.080;2022-10-16T13:35:52;101088.63;;;23.67;45.32
22688;BME280;11511;51.514;7.080;2022-10-16T13:38:31;101095.63;;;23.58;43.90
22688;BME280;11511;51.514;7.080;2022-10-16T13:41:05;101105.97;;;22.63;47.29
22688;BME280;11511;51.514;7.080;2022-10-16T13:43:52;101103.94;;;23.44;46.76
22688;BME280;11511;51.514;7.080;2022-10-16T13:46:23;101106.69;;;23.21;45.89
22688;BME280;11511;51.514;7.080;2022-10-16T13:49:27;101099.63;;;22.76;47.49
22688;BME280;11511;51.514;7.080;2022-10-16T13:51:59;101104.44;;;21.19;52.24
22688;BME280;11511;51.514;7.080;2022-10-16T13:54:31;101094.91;;;21.15;52.33
22688;BME280;11511;51.514;7.080;2022-10-16T13:57:07;101090.66;;;20.51;54.92
22688;BME280;11511;51.514;7.080;2022-10-16T13:59:37;101086.09;;;20.26;55.16
22688;BME280;11511;51.514;7.080;2022-10-16T14:04:50;101083.16;;;21.05;52.75
22688;BME280;11511;51.514;7.080;2022-10-16T14:07:32;101088.63;;;21.04;53.08
22688;BME280;11511;51.514;7.080;2022-10-16T14:10:24;101096.03;;;21.00;53.26
22688;BME280;11511;51.514;7.080;2022-10-16T14:12:58;101094.28;;;21.48;52.83
22688;BME280;11511;51.514;7.080;2022-10-16T14:15:30;101090.50;;;21.14;53.61
22688;BME280;11511;51.514;7.080;2022-10-16T14:17:59;101088.16;;;21.10;53.13
22688;BME280;11511;51.514;7.080;2022-10-16T14:20:32;101101.34;;;20.64;54.44
22688;BME280;11511;51.514;7.080;2022-10-16T14:23:04;101107.63;;;19.72;56.96
22688;BME280;11511;51.514;7.080;2022-10-16T14:25:36;101119.03;;;19.62;58.27
22688;BME280;11511;51.514;7.080;2022-10-16T14:28:19;101112.38;;;18.99;59.75
22688;BME280;11511;51.514;7.080;2022-10-16T14:30:53;101111.53;;;19.13;60.59
22688;BME280;11511;51.514;7.080;2022-10-16T14:33:33;101116.69;;;18.87;62.21
22688;BME280;11511;51.514;7.080;2022-10-16T14:38:42;101103.25;;;18.89;63.60
22688;BME280;11511;51.514;7.080;2022-10-16T14:41:12;101096.09;;;18.89;63.86
22688;BME280;11511;51.514;7.080;2022-10-16T14:43:42;101078.38;;;19.30;62.21
22688;BME280;11511;51.514;7.080;2022-10-16T14:46:15;101071.25;;;19.70;60.57
22688;BME280;11511;51.514;7.080;2022-10-16T14:48:47;101080.69;;;19.75;59.21